Time;durP1;ratioP1;P1;durP2;ratioP2;P2;SDS_P1;SDS_P2;PMS_P1;PMS_P2;Temp;Humidity;BMP_temperature;BMP_pressure;BME280_temperature;BME280_humidity;BME280_pressure;Samples;Min_cycle;Max_cycle;Signal;HPM_P1;HPM_P2
2022/01/02 00:01:22;;;;;;;31.25;27.73;;;;;;;6.79;85.91;101079.94;4998343;28;20041;-74
2022/01/02 00:03:54;;;;;;;42.33;33.30;;;;;;;6.92;86.02;101106.41;4996439;28;20056;-75
2022/01/02 00:06:30;;;;;;;33.42;26.70;;;;;;;6.89;85.65;101098.50;4998306;28;20112;-77
2022/01/02 00:09:03;;;;;;;42.92;32.53;;;;;;;7.08;85.55;101141.59;4999324;28;20029;-71
2022/01/02 00:11:30;;;;;;;39.97;32.08;;;;;;;7.08;85.06;101117.25;5002008;28;20048;-71
2022/01/02 00:14:08;;;;;;;31.85;27.45;;;;;;;7.08;84.72;101131.16;5012152;28;20132;-72
2022/01/02 00:16:35;;;;;;;30.50;27.10;;;;;;;6.83;84.88;101142.66;5001389;28;20041;-73
2022/01/02 00:19:20;;;;;;;30.13;25.90;;;;;;;6.87;84.77;101149.75;5001683;28;20117;-70
2022/01/02 00:21:48;;;;;;;24.50;21.38;;;;;;;6.93;84.38;101154.22;4999535;28;20042;-76
2022/01/02 00:24:18;;;;;;;25.73;19.88;;;;;;;6.87;83.65;101128.88;4999231;28;20057;-72
2022/01/02 00:26:48;;;;;;;21.63;19.30;;;;;;;6.91;83.54;101161.16;5004650;28;20041;-71
2022/01/02 00:29:13;;;;;;;23.33;19.27;;;;;;;6.82;83.54;101166.13;5003305;28;20068;-70
2022/01/02 00:31:40;;;;;;;24.45;18.92;;;;;;;6.67;83.77;101148.31;5017412;28;20061;-72
2022/01/02 00:34:11;;;;;;;23.70;17.70;;;;;;;6.51;83.94;101134.88;5021473;28;20030;-72
2022/01/02 00:36:37;;;;;;;18.98;16.42;;;;;;;6.49;83.75;101143.47;5018905;28;20072;-73
2022/01/02 00:39:06;;;;;;;20.75;16.88;;;;;;;6.54;83.91;101147.97;4984119;28;21190;-73
2022/01/02 00:41:37;;;;;;;20.75;17.13;;;;;;;6.62;83.59;101153.41;5004810;28;20021;-72
2022/01/02 00:44:17;;;;;;;22.17;17.98;;;;;;;5.89;85.44;101126.91;5005606;28;20042;-72
2022/01/02 00:46:57;;;;;;;19.63;16.70;;;;;;;6.14;85.09;101127.69;5004974;28;20042;-72
2022/01/02 00:49:27;;;;;;;22.65;17.95;;;;;;;6.36;84.55;101136.13;5025578;28;20488;-72
2022/01/02 00:52:04;;;;;;;21.95;16.33;;;;;;;6.27;84.17;101153.25;5003763;28;20057;-72
2022/01/02 00:54:32;;;;;;;20.52;16.33;;;;;;;6.19;84.30;101127.84;5005154;28;20450;-72
2022/01/02 00:57:04;;;;;;;19.08;16.08;;;;;;;6.17;84.07;101129.50;5009606;28;20030;-79
2022/01/02 00:59:45;;;;;;;18.42;16.58;;;;;;;5.96;84.44;101129.75;5003173;28;20422;-72
2022/01/02 01:02:18;;;;;;;26.40;17.48;;;;;;;6.05;84.36;101130.03;5004380;28;20034;-74
2022/01/02 01:04:46;;;;;;;20.48;15.70;;;;;;;6.24;83.89;101132.34;4989315;28;20456;-73
2022/01/02 01:07:14;;;;;;;20.95;16.50;;;;;;;6.07;84.30;101152.69;5006003;28;20029;-72
2022/01/02 01:09:40;;;;;;;17.92;14.68;;;;;;;5.99;84.60;101129.84;5006581;28;20117;-73
2022/01/02 01:12:06;;;;;;;20.45;15.73;;;;;;;6.25;84.12;101160.19;5010281;28;20038;-73
2022/01/02 01:14:32;;;;;;;19.10;14.45;;;;;;;6.19;84.00;101152.16;5014351;28;20045;-70
2022/01/02 01:16:59;;;;;;;19.05;15.07;;;;;;;5.98;84.19;101155.00;5003796;28;20042;-70
2022/01/02 01:19:25;;;;;;;17.42;12.90;;;;;;;5.80;84.09;101129.25;5001693;28;20038;-71
2022/01/02 01:21:50;;;;;;;19.75;15.23;;;;;;;5.84;83.70;101123.28;5009140;28;20080;-72
2022/01/02 01:24:16;;;;;;;14.60;13.10;;;;;;;5.94;83.32;101137.50;5009478;28;20040;-71
2022/01/02 01:26:50;;;;;;;20.67;14.18;;;;;;;6.10;82.83;101157.09;5012655;28;20041;-71
2022/01/02 01:29:15;;;;;;;15.13;13.27;;;;;;;5.78;83.42;101137.84;5008839;28;20092;-70
2022/01/02 01:31:41;;;;;;;18.65;13.65;;;;;;;5.81;83.73;101164.00;5012026;28;20120;-78
2022/01/02 01:34:28;;;;;;;22.02;13.95;;;;;;;5.87;83.42;101164.16;5005330;28;20042;-71
2022/01/02 01:36:53;;;;;;;18.92;15.52;;;;;;;5.81;83.58;101146.66;5005446;28;20129;-74
2022/01/02 01:39:19;;;;;;;23.17;14.52;;;;;;;5.85;83.04;101132.91;5008533;28;20120;-71
2022/01/02 01:41:47;;;;;;;15.38;13.35;;;;;;;5.41;84.20;101139.31;5003472;28;20112;-71
2022/01/02 01:46:41;;;;;;;22.30;14.85;;;;;;;5.78;83.90;101166.50;5000848;28;20053;-71
2022/01/02 01:49:15;;;;;;;20.50;13.82;;;;;;;5.67;83.82;101147.94;5002046;28;20133;-72
2022/01/02 01:51:41;;;;;;;26.08;14.90;;;;;;;5.57;83.69;101164.09;4984145;28;20057;-72
2022/01/02 01:54:07;;;;;;;19.23;14.88;;;;;;;5.50;84.15;101152.59;5007708;28;20155;-75
2022/01/02 01:56:32;;;;;;;24.20;16.88;;;;;;;5.37;83.99;101148.72;5003258;28;20045;-73
2022/01/02 01:58:58;;;;;;;20.83;15.20;;;;;;;5.53;83.81;101150.09;5014517;28;20120;-73
2022/01/02 02:01:24;;;;;;;19.60;14.95;;;;;;;5.51;83.78;101141.34;5009310;28;20041;-70
2022/01/02 02:03:50;;;;;;;16.55;13.20;;;;;;;5.74;83.40;101173.34;5002269;28;20041;-71
2022/01/02 02:06:16;;;;;;;19.40;15.32;;;;;;;5.57;83.87;101172.81;5004996;28;20041;-71
2022/01/02 02:08:41;;;;;;;18.55;14.95;;;;;;;5.34;84.11;101179.84;5005333;28;20037;-79
2022/01/02 02:11:09;;;;;;;23.45;15.70;;;;;;;5.19;84.67;101166.31;5012727;28;20442;-72
2022/01/02 02:16:02;;;;;;;16.75;14.50;;;;;;;5.61;84.41;101181.56;5101009;27;20208;-70
2022/01/02 02:18:28;;;;;;;19.08;15.02;;;;;;;5.55;83.70;101184.88;5062226;28;20040;-70
2022/01/02 02:20:53;;;;;;;18.13;15.88;;;;;;;5.02;85.03;101151.00;5069460;28;20024;-71
2022/01/02 02:23:19;;;;;;;19.45;15.95;;;;;;;5.27;84.49;101176.16;5065431;28;20024;-71
2022/01/02 02:25:44;;;;;;;15.73;14.00;;;;;;;5.20;84.90;101191.50;5068732;28;20040;-70
2022/01/02 02:28:15;;;;;;;17.10;14.05;;;;;;;5.12;85.16;101180.81;5061015;28;20129;-71
2022/01/02 02:30:43;;;;;;;18.92;14.45;;;;;;;4.78;85.76;101184.84;5072339;28;20047;-70
2022/01/02 02:33:10;;;;;;;18.95;15.38;;;;;;;5.21;84.96;101186.34;5072285;28;20040;-73
2022/01/02 02:35:38;;;;;;;19.42;15.85;;;;;;;5.26;84.93;101202.97;5078051;28;20036;-75
2022/01/02 02:38:08;;;;;;;18.77;15.05;;;;;;;5.22;84.96;101182.00;5067271;28;20040;-72
2022/01/02 02:40:36;;;;;;;18.90;15.07;;;;;;;5.07;84.62;101196.25;5051435;28;20068;-69
2022/01/02 02:51:03;;;;;;;19.23;15.98;;;;;;;4.99;85.42;101196.84;5072647;28;20024;-72
2022/01/02 02:53:28;;;;;;;18.15;14.35;;;;;;;5.19;85.16;101211.41;5070998;28;20082;-78
2022/01/02 02:55:59;;;;;;;21.23;13.93;;;;;;;5.16;84.85;101198.31;5058451;28;20133;-73
2022/01/02 03:00:57;;;;;;;18.95;13.85;;;;;;;5.05;85.28;101199.63;5071460;28;20373;-72
2022/01/02 03:03:22;;;;;;;18.40;14.57;;;;;;;4.98;84.72;101221.06;5043157;28;20104;-71
2022/01/02 03:05:48;;;;;;;23.80;16.02;;;;;;;4.76;84.40;101202.09;5071077;28;20127;-74
2022/01/02 03:08:14;;;;;;;16.95;14.45;;;;;;;4.97;84.77;101228.00;5073087;28;20039;-71
2022/01/02 03:10:42;;;;;;;22.42;15.35;;;;;;;4.57;86.08;101181.47;5073387;28;20375;-71
2022/01/02 03:13:08;;;;;;;15.63;13.77;;;;;;;4.90;85.28;101236.41;5068372;28;20062;-70
2022/01/02 03:17:58;;;;;;;18.48;12.73;;;;;;;5.04;84.92;101214.38;5031835;27;1710567;-74
2022/01/02 03:20:24;;;;;;;18.48;15.07;;;;;;;5.17;84.70;101246.88;5013625;28;20112;-72
2022/01/02 03:22:49;;;;;;;19.55;13.27;;;;;;;4.80;84.72;101226.47;5012849;28;20382;-72
2022/01/02 03:25:15;;;;;;;16.30;13.38;;;;;;;4.47;85.69;101221.78;5025839;28;20033;-71
2022/01/02 03:27:41;;;;;;;15.55;13.65;;;;;;;4.82;85.32;101267.34;5029781;28;20061;-72
2022/01/02 03:30:08;;;;;;;16.25;11.90;;;;;;;4.55;86.18;101248.09;5009559;28;20042;-72
2022/01/02 03:32:33;;;;;;;17.75;14.82;;;;;;;4.79;86.31;101262.00;5023370;28;20059;-71
2022/01/02 03:34:59;;;;;;;17.33;12.98;;;;;;;4.52;86.21;101284.34;5016073;28;20542;-72
2022/01/02 03:37:28;;;;;;;19.63;15.70;;;;;;;4.34;87.79;101303.59;5009602;28;20038;-72
2022/01/02 03:39:57;;;;;;;17.92;15.27;;;;;;;4.19;88.18;101308.16;5017818;28;20407;-72
2022/01/02 03:42:22;;;;;;;23.48;16.40;;;;;;;3.83;88.09;101289.38;5020747;28;20065;-74
2022/01/02 03:44:48;;;;;;;20.27;18.05;;;;;;;3.57;89.04;101292.66;5018587;28;20058;-74
2022/01/02 03:47:14;;;;;;;19.48;16.73;;;;;;;3.59;89.76;101316.97;5011054;28;20029;-71
2022/01/02 03:49:40;;;;;;;19.13;16.02;;;;;;;4.00;89.10;101280.56;5011371;28;20037;-71
2022/01/02 03:52:06;;;;;;;25.33;18.40;;;;;;;4.24;88.25;101314.47;5008768;28;20390;-72
2022/01/02 03:54:32;;;;;;;22.83;18.83;;;;;;;4.42;87.32;101304.81;5013209;28;20038;-72
2022/01/02 03:56:58;;;;;;;27.52;17.70;;;;;;;4.24;87.24;101306.66;5015053;28;20543;-71
2022/01/02 03:59:26;;;;;;;18.73;16.70;;;;;;;3.95;87.68;101313.25;5016245;28;21064;-72
2022/01/02 04:01:52;;;;;;;21.95;16.42;;;;;;;3.94;88.05;101294.19;5009984;28;20048;-72
2022/01/02 04:04:19;;;;;;;23.83;19.00;;;;;;;4.09;87.79;101296.53;5014898;28;20038;-72
2022/01/02 04:06:45;;;;;;;26.08;18.63;;;;;;;4.22;87.30;101295.31;5004335;28;20128;-72
2022/01/02 04:09:10;;;;;;;25.20;18.27;;;;;;;4.41;86.70;101309.94;5017004;28;20120;-76
2022/01/02 04:11:36;;;;;;;25.05;18.55;;;;;;;4.38;86.45;101313.28;5036027;28;20500;-72
2022/01/02 04:14:01;;;;;;;23.80;17.90;;;;;;;4.27;85.62;101285.13;5031512;28;20045;-73
2022/01/02 04:16:27;;;;;;;27.15;18.60;;;;;;;4.24;85.46;101309.25;5012502;28;20092;-71
2022/01/02 04:20:05;;;;;;;21.70;16.15;;;;;;;4.08;85.25;101312.06;5023969;27;20628;-71
2022/01/02 04:22:31;;;;;;;18.98;16.92;;;;;;;4.27;85.96;101326.69;5022099;28;20037;-70
2022/01/02 04:24:57;;;;;;;23.08;17.40;;;;;;;4.40;85.80;101327.22;5017449;28;20049;-76
2022/01/02 04:27:23;;;;;;;19.38;15.90;;;;;;;3.64;86.57;101330.13;5022473;28;20087;-70
2022/01/02 04:29:50;;;;;;;23.25;17.17;;;;;;;3.61;88.51;101326.53;5022368;28;20076;-71
2022/01/02 04:32:16;;;;;;;21.70;17.50;;;;;;;3.39;89.52;101328.19;5015033;28;20025;-70
2022/01/02 04:34:43;;;;;;;27.45;17.45;;;;;;;3.51;89.75;101320.97;5016205;28;20424;-70
2022/01/02 04:37:10;;;;;;;25.67;19.67;;;;;;;4.10;88.51;101307.81;5015000;28;20465;-71
2022/01/02 04:39:36;;;;;;;22.10;19.55;;;;;;;4.50;87.30;101338.88;5015588;28;20060;-72
2022/01/02 04:42:02;;;;;;;24.55;20.35;;;;;;;4.29;86.82;101328.50;5018121;28;20030;-71
2022/01/02 04:44:27;;;;;;;24.98;20.02;;;;;;;4.48;86.36;101353.53;5015126;28;20061;-71
2022/01/02 04:46:53;;;;;;;30.73;21.52;;;;;;;4.45;86.38;101353.41;5015672;28;20046;-71
2022/01/02 04:49:19;;;;;;;23.00;19.45;;;;;;;4.33;86.06;101330.41;5013574;28;20044;-73
2022/01/02 04:51:44;;;;;;;23.27;19.35;;;;;;;4.77;85.43;101367.66;5015274;28;20128;-71
2022/01/02 04:54:10;;;;;;;26.35;20.23;;;;;;;4.33;85.27;101353.81;5014855;28;21589;-72
2022/01/02 04:56:36;;;;;;;24.02;20.73;;;;;;;4.20;85.67;101344.59;5014123;28;20034;-73
2022/01/02 04:59:02;;;;;;;23.45;20.35;;;;;;;4.12;85.97;101335.63;5016150;28;20156;-72
2022/01/02 05:01:28;;;;;;;24.65;20.13;;;;;;;3.69;87.41;101356.28;4997863;28;20041;-73
2022/01/02 05:03:53;;;;;;;23.95;21.40;;;;;;;4.27;87.61;101373.44;5012811;28;20064;-72
2022/01/02 05:06:20;;;;;;;22.60;19.40;;;;;;;4.30;86.39;101343.25;5014498;28;20042;-72
2022/01/02 05:08:46;;;;;;;28.05;19.25;;;;;;;4.13;86.22;101367.69;5011512;28;20391;-72
2022/01/02 05:11:16;;;;;;;23.08;19.52;;;;;;;4.16;86.33;101365.19;5020756;28;20032;-71
2022/01/02 05:13:42;;;;;;;24.15;19.23;;;;;;;4.42;85.75;101392.22;5022318;28;20045;-73
2022/01/02 05:16:09;;;;;;;22.38;19.50;;;;;;;4.28;85.26;101378.69;5016515;28;20052;-72
2022/01/02 05:18:34;;;;;;;27.25;19.75;;;;;;;4.37;85.23;101394.66;5013537;28;20053;-71
2022/01/02 05:21:00;;;;;;;22.77;20.35;;;;;;;4.23;85.11;101382.81;5014907;28;20113;-72
2022/01/02 05:23:25;;;;;;;24.58;20.17;;;;;;;4.15;85.35;101379.91;5016550;28;20228;-72
2022/01/02 05:25:52;;;;;;;28.60;21.65;;;;;;;4.10;86.37;101372.75;5019180;28;20113;-72
2022/01/02 05:28:38;;;;;;;25.65;20.83;;;;;;;4.09;86.67;101409.91;5015781;28;20437;-72
2022/01/02 05:31:04;;;;;;;24.95;20.85;;;;;;;4.00;87.11;101420.78;5006686;28;20044;-71
2022/01/02 05:33:30;;;;;;;28.48;20.75;;;;;;;3.79;87.30;101393.09;5000654;28;20046;-71
2022/01/02 05:35:56;;;;;;;29.73;21.05;;;;;;;4.25;86.64;101414.06;5000646;28;20034;-71
2022/01/02 05:38:22;;;;;;;28.75;21.65;;;;;;;3.84;86.43;101395.91;4996987;28;20037;-72
2022/01/02 05:40:50;;;;;;;29.15;20.52;;;;;;;4.19;86.33;101431.16;5004847;28;20500;-72
2022/01/02 05:43:15;;;;;;;28.77;21.48;;;;;;;4.18;85.59;101447.53;5003886;28;20065;-71
2022/01/02 05:45:41;;;;;;;24.13;21.58;;;;;;;3.95;85.46;101451.75;5003931;28;20119;-72
2022/01/02 05:48:06;;;;;;;21.05;18.63;;;;;;;3.65;86.17;101440.03;5002116;28;20405;-72
2022/01/02 05:50:32;;;;;;;27.23;20.48;;;;;;;3.74;86.34;101448.22;5003537;28;20374;-70
2022/01/02 05:52:57;;;;;;;24.73;21.27;;;;;;;3.75;85.84;101432.72;5002049;28;20045;-70
2022/01/02 05:55:23;;;;;;;24.35;21.77;;;;;;;3.65;86.04;101434.81;5001212;28;20489;-70
2022/01/02 05:57:48;;;;;;;27.23;21.35;;;;;;;3.60;86.12;101442.41;5002522;28;20041;-71
2022/01/02 06:00:14;;;;;;;34.25;22.75;;;;;;;3.72;85.73;101460.22;5000447;28;20066;-71
2022/01/02 06:02:40;;;;;;;24.80;22.05;;;;;;;3.66;86.07;101476.44;5003952;28;20065;-70
2022/01/02 06:05:06;;;;;;;25.52;22.75;;;;;;;3.67;85.79;101465.22;5004569;28;20042;-70
2022/01/02 06:07:34;;;;;;;31.02;22.58;;;;;;;3.51;85.88;101447.19;4998758;28;20065;-70
2022/01/02 06:10:08;;;;;;;27.88;23.75;;;;;;;3.36;86.49;101476.78;5001852;28;20117;-72
2022/01/02 06:12:34;;;;;;;28.75;25.13;;;;;;;3.46;86.14;101467.72;5001759;28;20046;-72
2022/01/02 06:15:00;;;;;;;28.65;24.27;;;;;;;3.62;86.46;101477.09;4996439;28;20051;-75
2022/01/02 06:17:26;;;;;;;23.08;20.25;;;;;;;4.08;86.60;101496.44;4997356;28;20036;-76
2022/01/02 06:19:52;;;;;;;26.15;19.33;;;;;;;4.07;86.58;101494.66;4992950;28;20046;-70
2022/01/02 06:22:18;;;;;;;19.17;16.88;;;;;;;3.93;86.28;101488.84;5000704;28;20042;-75
2022/01/02 06:24:44;;;;;;;23.20;17.85;;;;;;;3.91;87.19;101521.66;5001665;28;20453;-70
2022/01/02 06:27:09;;;;;;;19.70;16.10;;;;;;;3.77;87.65;101514.16;5007772;28;20038;-71
2022/01/02 06:29:35;;;;;;;19.40;15.65;;;;;;;4.10;87.01;101502.59;5002418;28;20113;-70
2022/01/02 06:32:01;;;;;;;20.50;16.35;;;;;;;4.25;86.46;101524.03;5004975;28;20044;-70
2022/01/02 06:34:26;;;;;;;23.83;17.70;;;;;;;4.01;86.39;101496.16;5004095;28;20477;-70
2022/01/02 06:36:52;;;;;;;19.02;16.88;;;;;;;4.14;86.31;101520.06;5000941;28;20073;-71
2022/01/02 06:39:17;;;;;;;26.40;16.48;;;;;;;4.18;86.46;101511.59;4999156;28;20116;-74
2022/01/02 06:41:43;;;;;;;21.27;17.77;;;;;;;4.25;86.90;101536.16;5000555;28;20480;-71
2022/01/02 06:44:08;;;;;;;21.02;16.48;;;;;;;4.36;86.11;101517.59;4999901;28;20045;-72
2022/01/02 06:46:34;;;;;;;20.70;16.52;;;;;;;4.24;86.02;101506.69;4997242;28;20037;-70
2022/01/02 06:48:59;;;;;;;20.85;15.52;;;;;;;4.42;85.58;101520.47;4996030;28;20042;-71
2022/01/02 06:51:26;;;;;;;23.17;17.45;;;;;;;4.48;85.80;101529.34;5000394;28;20466;-70
2022/01/02 06:53:51;;;;;;;27.10;17.23;;;;;;;4.61;85.50;101527.34;5003139;28;20100;-71
2022/01/02 06:56:39;;;;;;;21.35;16.80;;;;;;;4.70;85.38;101524.22;5001947;28;20100;-71
2022/01/02 06:59:06;;;;;;;24.15;18.83;;;;;;;4.69;85.59;101505.97;5002324;28;20085;-71
2022/01/02 07:01:33;;;;;;;18.40;15.65;;;;;;;4.79;85.14;101524.59;4996332;28;20049;-77
2022/01/02 07:03:59;;;;;;;19.63;15.07;;;;;;;4.97;85.08;101510.59;5002470;28;20053;-71
2022/01/02 07:06:24;;;;;;;17.45;13.95;;;;;;;4.94;85.34;101542.56;4996314;28;20489;-71
2022/01/02 07:08:50;;;;;;;24.60;15.55;;;;;;;5.43;84.43;101554.03;5006049;28;20053;-71
2022/01/02 07:11:17;;;;;;;17.05;13.60;;;;;;;5.35;83.76;101543.31;5001375;28;20026;-71
2022/01/02 07:13:44;;;;;;;15.48;11.93;;;;;;;5.36;83.47;101552.94;5004921;28;20038;-71
2022/01/02 07:16:10;;;;;;;17.98;13.55;;;;;;;5.53;82.99;101537.09;5000950;28;20049;-72
2022/01/02 07:18:36;;;;;;;16.88;12.15;;;;;;;5.65;81.92;101528.00;4994179;28;20059;-73
2022/01/02 07:21:01;;;;;;;16.48;13.25;;;;;;;5.82;81.92;101552.06;5000402;28;20465;-78
2022/01/02 07:23:27;;;;;;;14.93;12.20;;;;;;;5.60;82.15;101528.69;5001022;28;20037;-71
2022/01/02 07:25:54;;;;;;;19.27;13.73;;;;;;;6.05;81.77;101550.38;4996696;28;20034;-70
2022/01/02 07:28:21;;;;;;;19.63;14.38;;;;;;;5.86;81.43;101543.56;5003257;28;20038;-71
2022/01/02 07:30:47;;;;;;;18.48;12.70;;;;;;;5.97;81.26;101540.47;4994861;28;20042;-70
2022/01/02 07:33:13;;;;;;;18.55;14.10;;;;;;;5.95;81.19;101532.63;4997647;28;20040;-70
2022/01/02 07:35:40;;;;;;;20.00;13.68;;;;;;;5.80;81.26;101539.81;4997071;28;20033;-72
2022/01/02 07:38:07;;;;;;;16.98;13.07;;;;;;;5.76;82.19;101567.50;4993420;28;20132;-72
2022/01/02 07:40:34;;;;;;;16.55;13.43;;;;;;;5.91;81.85;101564.56;4995760;28;20037;-70
2022/01/02 07:43:00;;;;;;;20.17;15.63;;;;;;;5.95;81.44;101548.25;4999856;28;20045;-78
2022/01/02 07:45:25;;;;;;;18.13;14.63;;;;;;;6.27;80.80;101562.44;4999475;28;20117;-73
2022/01/02 07:47:51;;;;;;;20.30;14.05;;;;;;;6.08;80.74;101519.19;4998414;28;20026;-72
2022/01/02 07:50:18;;;;;;;16.30;14.57;;;;;;;5.84;81.71;101554.75;5002413;28;20478;-71
2022/01/02 07:52:43;;;;;;;21.08;14.90;;;;;;;6.06;82.03;101552.16;4998496;28;20080;-72
2022/01/02 07:55:09;;;;;;;20.95;15.35;;;;;;;5.98;82.18;101545.75;4998955;28;20041;-72
2022/01/02 07:57:35;;;;;;;23.95;16.48;;;;;;;6.41;81.88;101567.28;4999732;28;20034;-74
2022/01/02 08:00:07;;;;;;;19.42;16.23;;;;;;;6.44;80.55;101512.63;5004306;28;20115;-72
2022/01/02 08:02:32;;;;;;;23.33;16.48;;;;;;;6.68;79.95;101531.72;4998514;28;20037;-72
2022/01/02 08:04:58;;;;;;;18.77;15.27;;;;;;;6.81;79.69;101530.41;5008666;28;20033;-72
2022/01/02 08:07:23;;;;;;;20.23;16.35;;;;;;;6.93;79.52;101550.81;5014160;28;20531;-71
2022/01/02 08:09:48;;;;;;;23.05;17.45;;;;;;;6.94;79.38;101524.78;4995865;28;20038;-71
2022/01/02 08:12:14;;;;;;;21.92;16.42;;;;;;;7.05;79.25;101524.25;4997204;28;20068;-71
2022/01/02 08:18:01;;;;;;;19.38;15.57;;;;;;;7.31;78.51;101539.00;5010748;28;20049;-71
2022/01/02 08:20:27;;;;;;;20.38;15.85;;;;;;;7.38;78.01;101534.88;5001374;28;20416;-71
2022/01/02 08:22:53;;;;;;;16.08;13.60;;;;;;;7.55;77.57;101575.44;5006362;28;20389;-70
2022/01/02 08:25:19;;;;;;;16.15;13.45;;;;;;;7.39;77.66;101539.25;4996428;28;20487;-71
2022/01/02 08:27:44;;;;;;;16.60;12.40;;;;;;;7.51;77.50;101572.69;5000696;28;20040;-78
2022/01/02 08:30:10;;;;;;;20.75;12.27;;;;;;;7.53;77.33;101552.72;5018860;28;21057;-71
2022/01/02 08:32:50;;;;;;;15.68;12.63;;;;;;;7.51;77.25;101555.28;5006735;28;20033;-70
2022/01/02 08:35:16;;;;;;;17.83;13.05;;;;;;;7.62;76.80;101573.91;5003412;28;20105;-76
2022/01/02 08:37:41;;;;;;;17.27;12.27;;;;;;;7.74;76.09;101578.63;5001342;28;20502;-70
2022/01/02 08:40:08;;;;;;;17.83;13.38;;;;;;;7.56;75.93;101550.19;4997642;28;20054;-71
2022/01/02 08:42:33;;;;;;;16.95;12.80;;;;;;;7.85;75.13;101585.06;4996629;28;20125;-71
2022/01/02 08:44:59;;;;;;;18.23;12.98;;;;;;;7.21;75.34;101550.00;5004579;28;20727;-71
2022/01/02 08:47:25;;;;;;;18.17;12.57;;;;;;;7.75;74.73;101586.50;5004390;28;20021;-71
2022/01/02 08:49:50;;;;;;;18.42;11.63;;;;;;;7.30;74.91;101572.88;5007707;28;20038;-70
2022/01/02 08:52:16;;;;;;;13.70;11.20;;;;;;;7.73;72.90;101571.63;5001707;28;20477;-70
2022/01/02 08:54:42;;;;;;;14.88;9.63;;;;;;;7.58;73.10;101585.09;5007539;28;20493;-70
2022/01/02 08:57:07;;;;;;;13.32;10.40;;;;;;;7.34;73.64;101559.97;5005404;28;20156;-71
2022/01/02 08:59:33;;;;;;;15.48;9.35;;;;;;;7.67;72.01;101555.75;5001486;28;20420;-76
2022/01/02 09:01:58;;;;;;;13.95;10.93;;;;;;;7.40;72.61;101601.97;5009138;28;20073;-71
2022/01/02 09:04:24;;;;;;;16.92;11.40;;;;;;;7.65;72.44;101592.28;5004329;28;20498;-71
2022/01/02 09:06:50;;;;;;;13.02;9.57;;;;;;;7.78;71.15;101573.53;4994201;28;20041;-77
2022/01/02 09:09:15;;;;;;;20.65;11.00;;;;;;;8.06;70.75;101602.22;5006982;28;20077;-70
2022/01/02 09:11:40;;;;;;;13.63;10.95;;;;;;;7.71;70.55;101582.03;5010914;28;20033;-70
2022/01/02 09:14:06;;;;;;;13.07;10.00;;;;;;;7.66;71.61;101594.06;5016761;28;20072;-70
2022/01/02 09:16:33;;;;;;;17.40;11.68;;;;;;;7.72;71.60;101583.78;5017709;28;20045;-70
2022/01/02 09:20:06;;;;;;;14.40;11.18;;;;;;;8.04;71.53;101570.81;5020705;27;20624;-71
2022/01/02 09:22:32;;;;;;;14.88;9.93;;;;;;;7.59;71.76;101561.63;5039638;28;20041;-71
2022/01/02 09:24:57;;;;;;;13.38;10.70;;;;;;;8.01;71.48;101599.47;5019059;28;20377;-75
2022/01/02 09:27:23;;;;;;;14.23;10.45;;;;;;;7.87;71.66;101599.06;5011933;28;20501;-71
2022/01/02 09:29:49;;;;;;;12.95;9.50;;;;;;;7.97;72.17;101603.72;5009385;28;20474;-71
2022/01/02 09:32:15;;;;;;;14.70;11.00;;;;;;;7.93;72.43;101595.72;5010163;28;20060;-71
2022/01/02 09:34:41;;;;;;;13.88;11.52;;;;;;;8.27;72.64;101586.28;5009137;28;20135;-70
2022/01/02 09:37:07;;;;;;;17.42;12.32;;;;;;;7.88;74.02;101589.47;5012709;28;20050;-70
2022/01/02 09:39:34;;;;;;;15.65;12.13;;;;;;;8.48;72.52;101588.63;5015535;28;20137;-72
2022/01/02 09:42:05;;;;;;;17.67;12.50;;;;;;;7.99;73.39;101561.94;5010440;28;20030;-72
2022/01/02 09:44:34;;;;;;;17.10;12.63;;;;;;;7.53;75.08;101579.72;5014982;28;20018;-73
2022/01/02 09:46:59;;;;;;;18.30;13.10;;;;;;;7.86;74.85;101583.31;5013061;28;20037;-72
2022/01/02 09:49:25;;;;;;;16.90;11.73;;;;;;;7.88;73.86;101577.28;5006594;28;20386;-72
2022/01/02 09:51:51;;;;;;;13.40;11.27;;;;;;;8.26;73.20;101577.50;5011849;28;20140;-72
2022/01/02 09:54:16;;;;;;;17.70;11.20;;;;;;;8.36;73.59;101591.75;5015618;28;20390;-72
2022/01/02 09:56:42;;;;;;;17.58;11.93;;;;;;;8.24;72.44;101582.72;5015316;28;20065;-72
2022/01/02 09:59:08;;;;;;;14.43;11.70;;;;;;;8.57;71.87;101547.00;5007124;28;21147;-73
2022/01/02 10:01:37;;;;;;;18.35;12.55;;;;;;;8.00;73.24;101556.75;5009791;28;20049;-72
2022/01/02 10:04:03;;;;;;;16.25;11.80;;;;;;;8.59;72.55;101582.84;5006579;28;20094;-78
2022/01/02 10:06:39;;;;;;;14.82;11.65;;;;;;;8.64;71.18;101548.97;5007024;28;20036;-72
2022/01/02 10:09:05;;;;;;;12.50;10.23;;;;;;;8.69;70.75;101555.19;5013152;28;20077;-72
2022/01/02 10:11:32;;;;;;;16.67;12.30;;;;;;;8.50;72.01;101566.91;5019898;28;20466;-71
2022/01/02 10:14:04;;;;;;;15.45;13.15;;;;;;;8.88;72.23;101554.81;5011554;28;20492;-72
2022/01/02 10:16:33;;;;;;;18.25;14.13;;;;;;;9.00;72.00;101580.41;5022957;28;20038;-70
2022/01/02 10:19:26;;;;;;;17.20;13.45;;;;;;;8.57;72.63;101552.22;5022103;28;20493;-72
2022/01/02 10:22:15;;;;;;;16.10;12.90;;;;;;;8.81;72.10;101565.09;5016461;28;20061;-71
2022/01/02 10:24:46;;;;;;;16.15;13.45;;;;;;;8.85;72.71;101574.81;5014266;28;20037;-71
2022/01/02 10:27:19;;;;;;;16.45;12.88;;;;;;;8.91;72.34;101564.47;5017041;28;20576;-72
2022/01/02 10:29:55;;;;;;;16.92;13.95;;;;;;;8.36;72.94;101535.09;5006884;28;20505;-72
2022/01/02 10:32:38;;;;;;;21.80;14.15;;;;;;;8.60;73.29;101552.34;4997996;28;20161;-72
2022/01/02 10:35:09;;;;;;;14.45;12.55;;;;;;;8.47;72.52;101558.94;4994535;28;20034;-71
2022/01/02 10:37:36;;;;;;;16.40;13.95;;;;;;;8.59;73.11;101547.94;4998638;28;20052;-71
2022/01/02 10:40:03;;;;;;;19.05;14.45;;;;;;;8.58;73.25;101544.44;5000423;28;20042;-72
2022/01/02 10:42:28;;;;;;;15.73;12.75;;;;;;;9.27;71.57;101559.25;5000119;28;20068;-78
2022/01/02 10:44:54;;;;;;;18.10;13.60;;;;;;;9.46;70.98;101557.09;5005078;28;20073;-71
2022/01/02 10:47:25;;;;;;;16.45;11.93;;;;;;;8.95;70.74;101554.97;5008459;28;20025;-70
2022/01/02 10:50:02;;;;;;;19.75;15.23;;;;;;;9.59;69.54;101537.25;5010815;28;20038;-75
2022/01/02 10:52:36;;;;;;;19.58;13.35;;;;;;;9.09;70.36;101567.56;5007208;28;20125;-74
2022/01/02 10:55:21;;;;;;;20.75;12.57;;;;;;;10.35;67.53;101549.38;5002262;28;20121;-75
2022/01/02 10:57:51;;;;;;;16.05;11.77;;;;;;;10.51;66.65;101519.06;5021445;28;20124;-74
2022/01/02 11:00:19;;;;;;;14.10;11.90;;;;;;;10.65;65.47;101526.28;4992036;28;20034;-75
2022/01/02 11:02:45;;;;;;;14.32;11.60;;;;;;;10.30;67.00;101516.03;4993959;28;20034;-74
2022/01/02 11:05:14;;;;;;;22.08;10.70;;;;;;;10.86;65.82;101538.91;5001477;28;20025;-73
2022/01/02 11:07:45;;;;;;;17.05;12.38;;;;;;;10.69;66.18;101538.63;4996055;28;20042;-74
2022/01/02 11:10:40;;;;;;;18.20;13.93;;;;;;;9.79;67.65;101522.00;5004356;28;20462;-73
2022/01/02 11:13:06;;;;;;;27.73;13.38;;;;;;;8.74;70.82;101508.22;5006399;28;20049;-73
2022/01/02 11:15:33;;;;;;;19.92;14.35;;;;;;;8.84;71.86;101516.31;5004321;28;20076;-73
2022/01/02 11:17:59;;;;;;;22.52;14.00;;;;;;;9.94;69.95;101544.13;4997244;28;20041;-68
2022/01/02 11:20:28;;;;;;;15.82;11.82;;;;;;;10.35;67.90;101517.91;4996071;28;20060;-69
2022/01/02 11:23:22;;;;;;;16.27;11.25;;;;;;;14.28;54.19;101537.13;4994938;28;20045;-67
2022/01/02 11:26:12;;;;;;;16.23;11.77;;;;;;;11.46;65.28;101500.44;4994346;28;20045;-70
2022/01/02 11:28:40;;;;;;;18.75;11.60;;;;;;;9.34;67.77;101512.25;5001897;28;20053;-69
2022/01/02 11:31:09;;;;;;;16.67;13.00;;;;;;;9.58;68.10;101506.69;4997367;28;20044;-68
2022/01/02 11:33:40;;;;;;;17.30;11.27;;;;;;;9.43;67.83;101508.09;5009644;28;20524;-67
2022/01/02 11:36:25;;;;;;;13.20;10.05;;;;;;;8.87;69.54;101520.72;5001849;28;20498;-67
2022/01/02 11:39:02;;;;;;;13.50;10.93;;;;;;;8.50;70.88;101493.66;4998348;28;20462;-67
2022/01/02 11:41:50;;;;;;;18.48;10.68;;;;;;;9.81;67.28;101486.19;4993152;28;20038;-68
2022/01/02 11:44:21;;;;;;;17.02;10.25;;;;;;;13.19;58.36;101507.53;4997025;28;20076;-69